sensor_id;sensor_type;location;lat;lon;timestamp;P1;durP1;ratioP1;P2;durP2;ratioP2
7593;SDS011;3838;43.124;25.686;2023-10-31T00:00:50;98.60;;;94.78;;
7593;SDS011;3838;43.124;25.686;2023-10-31T00:03:16;101.25;;;97.30;;
7593;SDS011;3838;43.124;25.686;2023-10-31T00:05:41;101.90;;;97.95;;
7593;SDS011;3838;43.124;25.686;2023-10-31T00:08:07;103.25;;;99.20;;
7593;SDS011;3838;43.124;25.686;2023-10-31T00:10:33;100.10;;;96.20;;
7593;SDS011;3838;43.124;25.686;2023-10-31T00:12:58;100.85;;;96.93;;
7593;SDS011;3838;43.124;25.686;2023-10-31T00:15:24;98.53;;;94.72;;
7593;SDS011;3838;43.124;25.686;2023-10-31T00:17:49;103.95;;;99.75;;
7593;SDS011;3838;43.124;25.686;2023-10-31T00:20:15;99.93;;;96.03;;
7593;SDS011;3838;43.124;25.686;2023-10-31T00:22:40;97.53;;;93.68;;
7593;SDS011;3838;43.124;25.686;2023-10-31T00:25:06;100.60;;;96.70;;
7593;SDS011;3838;43.124;25.686;2023-10-31T00:27:32;100.13;;;96.28;;
7593;SDS011;3838;43.124;25.686;2023-10-31T00:29:57;97.00;;;93.28;;
7593;SDS011;3838;43.124;25.686;2023-10-31T00:32:22;99.82;;;95.97;;
7593;SDS011;3838;43.124;25.686;2023-10-31T00:34:50;102.40;;;98.43;;
7593;SDS011;3838;43.124;25.686;2023-10-31T00:37:16;101.68;;;97.72;;
7593;SDS011;3838;43.124;25.686;2023-10-31T00:39:41;100.00;;;96.13;;
7593;SDS011;3838;43.124;25.686;2023-10-31T00:42:07;100.78;;;96.88;;
7593;SDS011;3838;43.124;25.686;2023-10-31T00:44:33;100.20;;;96.30;;
7593;SDS011;3838;43.124;25.686;2023-10-31T00:46:58;100.25;;;96.43;;
7593;SDS011;3838;43.124;25.686;2023-10-31T00:49:23;100.38;;;96.50;;
7593;SDS011;3838;43.124;25.686;2023-10-31T00:51:49;98.78;;;94.97;;
7593;SDS011;3838;43.124;25.686;2023-10-31T00:54:14;100.72;;;96.85;;
7593;SDS011;3838;43.124;25.686;2023-10-31T00:56:40;98.78;;;94.97;;
7593;SDS011;3838;43.124;25.686;2023-10-31T00:59:05;99.30;;;95.47;;
7593;SDS011;3838;43.124;25.686;2023-10-31T01:01:30;100.15;;;96.28;;
7593;SDS011;3838;43.124;25.686;2023-10-31T01:03:56;102.45;;;98.50;;
7593;SDS011;3838;43.124;25.686;2023-10-31T01:06:22;98.47;;;94.70;;
7593;SDS011;3838;43.124;25.686;2023-10-31T01:08:47;98.13;;;94.38;;
7593;SDS011;3838;43.124;25.686;2023-10-31T01:11:13;93.97;;;90.30;;
7593;SDS011;3838;43.124;25.686;2023-10-31T01:13:38;99.60;;;95.80;;
7593;SDS011;3838;43.124;25.686;2023-10-31T01:16:03;101.43;;;97.53;;
7593;SDS011;3838;43.124;25.686;2023-10-31T01:18:29;96.95;;;93.22;;
7593;SDS011;3838;43.124;25.686;2023-10-31T01:20:54;99.13;;;95.35;;
7593;SDS011;3838;43.124;25.686;2023-10-31T01:23:20;100.25;;;96.43;;
7593;SDS011;3838;43.124;25.686;2023-10-31T01:25:45;96.65;;;92.95;;
7593;SDS011;3838;43.124;25.686;2023-10-31T01:28:11;100.15;;;96.30;;
7593;SDS011;3838;43.124;25.686;2023-10-31T01:30:36;101.93;;;98.00;;
7593;SDS011;3838;43.124;25.686;2023-10-31T01:33:02;98.90;;;95.15;;
7593;SDS011;3838;43.124;25.686;2023-10-31T01:35:27;100.03;;;96.20;;
7593;SDS011;3838;43.124;25.686;2023-10-31T01:37:52;98.40;;;94.65;;
7593;SDS011;3838;43.124;25.686;2023-10-31T01:40:19;97.53;;;93.80;;
7593;SDS011;3838;43.124;25.686;2023-10-31T01:42:44;97.95;;;94.22;;
7593;SDS011;3838;43.124;25.686;2023-10-31T01:45:10;97.10;;;93.40;;
7593;SDS011;3838;43.124;25.686;2023-10-31T01:47:35;97.88;;;94.15;;
7593;SDS011;3838;43.124;25.686;2023-10-31T01:50:01;101.38;;;97.47;;
7593;SDS011;3838;43.124;25.686;2023-10-31T01:52:27;97.53;;;93.80;;
7593;SDS011;3838;43.124;25.686;2023-10-31T01:54:53;99.18;;;95.38;;
7593;SDS011;3838;43.124;25.686;2023-10-31T01:57:19;100.78;;;96.93;;
7593;SDS011;3838;43.124;25.686;2023-10-31T01:59:46;101.38;;;97.47;;
7593;SDS011;3838;43.124;25.686;2023-10-31T02:02:12;100.20;;;96.32;;
7593;SDS011;3838;43.124;25.686;2023-10-31T02:04:38;99.75;;;95.95;;
7593;SDS011;3838;43.124;25.686;2023-10-31T02:07:03;100.68;;;96.85;;
7593;SDS011;3838;43.124;25.686;2023-10-31T02:09:29;99.75;;;95.93;;
7593;SDS011;3838;43.124;25.686;2023-10-31T02:11:55;98.55;;;94.78;;
7593;SDS011;3838;43.124;25.686;2023-10-31T02:14:21;98.80;;;95.05;;
7593;SDS011;3838;43.124;25.686;2023-10-31T02:16:47;98.10;;;94.35;;
7593;SDS011;3838;43.124;25.686;2023-10-31T02:19:13;100.75;;;96.93;;
7593;SDS011;3838;43.124;25.686;2023-10-31T02:21:43;100.88;;;97.03;;
7593;SDS011;3838;43.124;25.686;2023-10-31T02:24:09;99.15;;;95.38;;
7593;SDS011;3838;43.124;25.686;2023-10-31T02:26:35;101.15;;;97.32;;
7593;SDS011;3838;43.124;25.686;2023-10-31T02:29:00;103.18;;;99.25;;
7593;SDS011;3838;43.124;25.686;2023-10-31T02:31:27;101.88;;;98.03;;
7593;SDS011;3838;43.124;25.686;2023-10-31T02:33:52;99.95;;;96.15;;
7593;SDS011;3838;43.124;25.686;2023-10-31T02:36:18;97.50;;;93.78;;
7593;SDS011;3838;43.124;25.686;2023-10-31T02:38:44;96.78;;;93.05;;
7593;SDS011;3838;43.124;25.686;2023-10-31T02:41:10;97.82;;;94.13;;
7593;SDS011;3838;43.124;25.686;2023-10-31T02:43:36;98.47;;;94.72;;
7593;SDS011;3838;43.124;25.686;2023-10-31T02:46:02;101.63;;;97.78;;
7593;SDS011;3838;43.124;25.686;2023-10-31T02:48:28;98.38;;;94.65;;
7593;SDS011;3838;43.124;25.686;2023-10-31T02:50:54;102.57;;;98.72;;
7593;SDS011;3838;43.124;25.686;2023-10-31T02:53:19;96.00;;;92.35;;
7593;SDS011;3838;43.124;25.686;2023-10-31T02:55:45;98.70;;;94.95;;
7593;SDS011;3838;43.124;25.686;2023-10-31T02:58:10;96.45;;;92.78;;
7593;SDS011;3838;43.124;25.686;2023-10-31T03:00:36;96.63;;;92.93;;
7593;SDS011;3838;43.124;25.686;2023-10-31T03:03:02;99.88;;;96.05;;
7593;SDS011;3838;43.124;25.686;2023-10-31T03:05:28;98.75;;;94.97;;
7593;SDS011;3838;43.124;25.686;2023-10-31T03:07:53;99.35;;;95.60;;
7593;SDS011;3838;43.124;25.686;2023-10-31T03:10:19;94.40;;;90.80;;
7593;SDS011;3838;43.124;25.686;2023-10-31T03:12:46;96.65;;;92.97;;
7593;SDS011;3838;43.124;25.686;2023-10-31T03:15:12;100.55;;;96.75;;
7593;SDS011;3838;43.124;25.686;2023-10-31T03:17:38;100.95;;;97.13;;
7593;SDS011;3838;43.124;25.686;2023-10-31T03:20:03;98.13;;;94.45;;
7593;SDS011;3838;43.124;25.686;2023-10-31T03:22:29;101.53;;;97.65;;
7593;SDS011;3838;43.124;25.686;2023-10-31T03:24:55;97.03;;;93.32;;
7593;SDS011;3838;43.124;25.686;2023-10-31T03:27:20;98.75;;;95.00;;
7593;SDS011;3838;43.124;25.686;2023-10-31T03:29:46;97.63;;;93.97;;
7593;SDS011;3838;43.124;25.686;2023-10-31T03:32:11;98.47;;;94.78;;
7593;SDS011;3838;43.124;25.686;2023-10-31T03:34:37;96.32;;;92.72;;
7593;SDS011;3838;43.124;25.686;2023-10-31T03:37:03;100.95;;;97.18;;
7593;SDS011;3838;43.124;25.686;2023-10-31T03:39:29;96.88;;;93.20;;
7593;SDS011;3838;43.124;25.686;2023-10-31T03:41:55;100.70;;;96.90;;
7593;SDS011;3838;43.124;25.686;2023-10-31T03:44:20;101.20;;;97.40;;
7593;SDS011;3838;43.124;25.686;2023-10-31T03:46:46;95.63;;;92.00;;
7593;SDS011;3838;43.124;25.686;2023-10-31T03:49:11;96.25;;;92.60;;
7593;SDS011;3838;43.124;25.686;2023-10-31T03:51:37;98.97;;;95.22;;
7593;SDS011;3838;43.124;25.686;2023-10-31T03:54:02;95.90;;;92.30;;
7593;SDS011;3838;43.124;25.686;2023-10-31T03:56:28;101.00;;;97.20;;
7593;SDS011;3838;43.124;25.686;2023-10-31T03:58:53;97.88;;;94.20;;
7593;SDS011;3838;43.124;25.686;2023-10-31T04:01:18;95.90;;;92.30;;
7593;SDS011;3838;43.124;25.686;2023-10-31T04:03:44;97.57;;;93.88;;
7593;SDS011;3838;43.124;25.686;2023-10-31T04:06:09;99.95;;;96.15;;
7593;SDS011;3838;43.124;25.686;2023-10-31T04:08:35;94.97;;;91.38;;
7593;SDS011;3838;43.124;25.686;2023-10-31T04:11:00;96.95;;;93.30;;
7593;SDS011;3838;43.124;25.686;2023-10-31T04:13:26;97.22;;;93.57;;
7593;SDS011;3838;43.124;25.686;2023-10-31T04:15:51;99.57;;;95.80;;
7593;SDS011;3838;43.124;25.686;2023-10-31T04:18:17;97.13;;;93.47;;
7593;SDS011;3838;43.124;25.686;2023-10-31T04:20:42;99.57;;;95.80;;
7593;SDS011;3838;43.124;25.686;2023-10-31T04:23:07;97.20;;;93.55;;
7593;SDS011;3838;43.124;25.686;2023-10-31T04:25:33;95.25;;;91.70;;
7593;SDS011;3838;43.124;25.686;2023-10-31T04:27:59;96.60;;;92.95;;
7593;SDS011;3838;43.124;25.686;2023-10-31T04:30:25;96.50;;;92.90;;
7593;SDS011;3838;43.124;25.686;2023-10-31T04:32:51;96.53;;;92.88;;
7593;SDS011;3838;43.124;25.686;2023-10-31T04:35:16;93.82;;;90.30;;
7593;SDS011;3838;43.124;25.686;2023-10-31T04:37:42;99.47;;;95.75;;
7593;SDS011;3838;43.124;25.686;2023-10-31T04:40:08;97.28;;;93.63;;
7593;SDS011;3838;43.124;25.686;2023-10-31T04:42:34;95.05;;;91.47;;
7593;SDS011;3838;43.124;25.686;2023-10-31T04:44:59;95.38;;;91.80;;
7593;SDS011;3838;43.124;25.686;2023-10-31T04:47:25;95.18;;;91.60;;
7593;SDS011;3838;43.124;25.686;2023-10-31T04:49:50;95.75;;;92.15;;
7593;SDS011;3838;43.124;25.686;2023-10-31T04:52:16;97.20;;;93.55;;
7593;SDS011;3838;43.124;25.686;2023-10-31T04:54:42;98.22;;;94.57;;
7593;SDS011;3838;43.124;25.686;2023-10-31T04:57:08;97.18;;;93.50;;
7593;SDS011;3838;43.124;25.686;2023-10-31T04:59:34;95.05;;;91.47;;
7593;SDS011;3838;43.124;25.686;2023-10-31T05:01:59;95.97;;;92.40;;
7593;SDS011;3838;43.124;25.686;2023-10-31T05:04:25;98.45;;;94.72;;
7593;SDS011;3838;43.124;25.686;2023-10-31T05:06:50;94.63;;;91.07;;
7593;SDS011;3838;43.124;25.686;2023-10-31T05:09:16;95.78;;;92.13;;
7593;SDS011;3838;43.124;25.686;2023-10-31T05:11:42;97.70;;;94.03;;
7593;SDS011;3838;43.124;25.686;2023-10-31T05:14:08;96.47;;;92.85;;
7593;SDS011;3838;43.124;25.686;2023-10-31T05:16:42;96.75;;;93.10;;
7593;SDS011;3838;43.124;25.686;2023-10-31T05:19:08;92.20;;;88.70;;
7593;SDS011;3838;43.124;25.686;2023-10-31T05:21:34;96.68;;;92.97;;
7593;SDS011;3838;43.124;25.686;2023-10-31T05:23:59;93.15;;;89.65;;
7593;SDS011;3838;43.124;25.686;2023-10-31T05:26:25;100.20;;;96.43;;
7593;SDS011;3838;43.124;25.686;2023-10-31T05:28:52;96.75;;;93.15;;
7593;SDS011;3838;43.124;25.686;2023-10-31T05:31:18;94.68;;;91.10;;
7593;SDS011;3838;43.124;25.686;2023-10-31T05:33:43;94.70;;;91.10;;
7593;SDS011;3838;43.124;25.686;2023-10-31T05:36:22;91.47;;;88.03;;
7593;SDS011;3838;43.124;25.686;2023-10-31T05:38:48;95.18;;;91.60;;
7593;SDS011;3838;43.124;25.686;2023-10-31T05:41:14;95.22;;;91.68;;
7593;SDS011;3838;43.124;25.686;2023-10-31T05:43:40;95.97;;;92.35;;
7593;SDS011;3838;43.124;25.686;2023-10-31T05:46:05;96.18;;;92.55;;
7593;SDS011;3838;43.124;25.686;2023-10-31T05:48:34;97.15;;;93.53;;
7593;SDS011;3838;43.124;25.686;2023-10-31T05:50:59;91.40;;;87.95;;
7593;SDS011;3838;43.124;25.686;2023-10-31T05:53:24;96.10;;;92.50;;
7593;SDS011;3838;43.124;25.686;2023-10-31T05:55:50;96.05;;;92.45;;
7593;SDS011;3838;43.124;25.686;2023-10-31T05:58:15;97.80;;;94.18;;
7593;SDS011;3838;43.124;25.686;2023-10-31T06:00:41;94.00;;;90.53;;
7593;SDS011;3838;43.124;25.686;2023-10-31T06:03:06;96.32;;;92.72;;
7593;SDS011;3838;43.124;25.686;2023-10-31T06:05:33;93.28;;;89.78;;
7593;SDS011;3838;43.124;25.686;2023-10-31T06:08:00;91.93;;;88.47;;
7593;SDS011;3838;43.124;25.686;2023-10-31T06:10:26;93.50;;;90.00;;
7593;SDS011;3838;43.124;25.686;2023-10-31T06:12:51;91.95;;;88.50;;
7593;SDS011;3838;43.124;25.686;2023-10-31T06:15:16;96.38;;;92.78;;
7593;SDS011;3838;43.124;25.686;2023-10-31T06:17:42;97.47;;;93.82;;
7593;SDS011;3838;43.124;25.686;2023-10-31T06:20:08;98.32;;;94.63;;
7593;SDS011;3838;43.124;25.686;2023-10-31T06:22:34;95.50;;;91.93;;
7593;SDS011;3838;43.124;25.686;2023-10-31T06:24:59;90.50;;;87.07;;
7593;SDS011;3838;43.124;25.686;2023-10-31T06:27:25;96.70;;;93.07;;
7593;SDS011;3838;43.124;25.686;2023-10-31T06:29:50;95.70;;;92.13;;
7593;SDS011;3838;43.124;25.686;2023-10-31T06:32:15;99.00;;;95.28;;
7593;SDS011;3838;43.124;25.686;2023-10-31T06:34:41;92.65;;;89.18;;
7593;SDS011;3838;43.124;25.686;2023-10-31T06:37:06;100.50;;;96.72;;
7593;SDS011;3838;43.124;25.686;2023-10-31T06:39:32;95.28;;;91.72;;
7593;SDS011;3838;43.124;25.686;2023-10-31T06:41:57;96.55;;;92.90;;
7593;SDS011;3838;43.124;25.686;2023-10-31T06:44:23;97.40;;;93.75;;
7593;SDS011;3838;43.124;25.686;2023-10-31T06:46:48;95.28;;;91.68;;
7593;SDS011;3838;43.124;25.686;2023-10-31T06:49:14;102.05;;;98.22;;
7593;SDS011;3838;43.124;25.686;2023-10-31T06:51:40;94.80;;;91.22;;
7593;SDS011;3838;43.124;25.686;2023-10-31T06:54:06;90.68;;;87.22;;
7593;SDS011;3838;43.124;25.686;2023-10-31T06:56:31;98.60;;;94.90;;
7593;SDS011;3838;43.124;25.686;2023-10-31T06:58:57;97.53;;;93.88;;
7593;SDS011;3838;43.124;25.686;2023-10-31T07:01:22;94.65;;;91.05;;
7593;SDS011;3838;43.124;25.686;2023-10-31T07:03:47;92.82;;;89.35;;
7593;SDS011;3838;43.124;25.686;2023-10-31T07:06:13;93.80;;;90.25;;
7593;SDS011;3838;43.124;25.686;2023-10-31T07:08:38;95.43;;;91.80;;
7593;SDS011;3838;43.124;25.686;2023-10-31T07:11:04;94.82;;;91.25;;
7593;SDS011;3838;43.124;25.686;2023-10-31T07:13:30;94.82;;;91.25;;
7593;SDS011;3838;43.124;25.686;2023-10-31T07:15:55;98.00;;;94.30;;
7593;SDS011;3838;43.124;25.686;2023-10-31T07:18:21;95.43;;;91.85;;
7593;SDS011;3838;43.124;25.686;2023-10-31T07:20:46;91.13;;;87.68;;
7593;SDS011;3838;43.124;25.686;2023-10-31T07:23:12;99.70;;;95.80;;
7593;SDS011;3838;43.124;25.686;2023-10-31T07:25:37;91.90;;;88.40;;
7593;SDS011;3838;43.124;25.686;2023-10-31T07:28:03;92.75;;;89.22;;
7593;SDS011;3838;43.124;25.686;2023-10-31T07:30:28;95.40;;;91.78;;
7593;SDS011;3838;43.124;25.686;2023-10-31T07:32:55;96.68;;;93.03;;
7593;SDS011;3838;43.124;25.686;2023-10-31T07:35:20;95.03;;;91.40;;
7593;SDS011;3838;43.124;25.686;2023-10-31T07:37:45;90.72;;;87.30;;
7593;SDS011;3838;43.124;25.686;2023-10-31T07:40:11;94.15;;;90.60;;
7593;SDS011;3838;43.124;25.686;2023-10-31T07:42:37;95.82;;;92.20;;
7593;SDS011;3838;43.124;25.686;2023-10-31T07:45:02;92.45;;;88.93;;
7593;SDS011;3838;43.124;25.686;2023-10-31T07:47:28;91.32;;;87.82;;
7593;SDS011;3838;43.124;25.686;2023-10-31T07:49:53;92.32;;;88.80;;
7593;SDS011;3838;43.124;25.686;2023-10-31T07:52:19;91.95;;;88.32;;
7593;SDS011;3838;43.124;25.686;2023-10-31T07:54:44;93.57;;;90.00;;
7593;SDS011;3838;43.124;25.686;2023-10-31T07:57:10;95.05;;;91.43;;
7593;SDS011;3838;43.124;25.686;2023-10-31T07:59:36;93.32;;;89.78;;
7593;SDS011;3838;43.124;25.686;2023-10-31T08:02:01;95.63;;;92.07;;
7593;SDS011;3838;43.124;25.686;2023-10-31T08:04:28;96.45;;;92.70;;
7593;SDS011;3838;43.124;25.686;2023-10-31T08:06:54;95.55;;;91.95;;
7593;SDS011;3838;43.124;25.686;2023-10-31T08:09:20;92.25;;;88.82;;
7593;SDS011;3838;43.124;25.686;2023-10-31T08:11:46;96.03;;;92.43;;
7593;SDS011;3838;43.124;25.686;2023-10-31T08:14:11;93.03;;;89.53;;
7593;SDS011;3838;43.124;25.686;2023-10-31T08:16:36;91.43;;;87.95;;
7593;SDS011;3838;43.124;25.686;2023-10-31T08:19:02;95.55;;;92.00;;
7593;SDS011;3838;43.124;25.686;2023-10-31T08:21:27;87.40;;;84.07;;
7593;SDS011;3838;43.124;25.686;2023-10-31T08:24:01;89.43;;;86.00;;
7593;SDS011;3838;43.124;25.686;2023-10-31T08:26:27;89.80;;;86.45;;
7593;SDS011;3838;43.124;25.686;2023-10-31T08:28:53;90.35;;;86.93;;
7593;SDS011;3838;43.124;25.686;2023-10-31T08:31:18;93.68;;;90.18;;
7593;SDS011;3838;43.124;25.686;2023-10-31T08:33:45;91.30;;;87.90;;
7593;SDS011;3838;43.124;25.686;2023-10-31T08:36:10;90.50;;;87.13;;
7593;SDS011;3838;43.124;25.686;2023-10-31T08:38:36;92.75;;;89.25;;
7593;SDS011;3838;43.124;25.686;2023-10-31T08:41:01;89.32;;;85.97;;
7593;SDS011;3838;43.124;25.686;2023-10-31T08:43:27;89.03;;;85.63;;
7593;SDS011;3838;43.124;25.686;2023-10-31T08:45:52;93.03;;;89.55;;
7593;SDS011;3838;43.124;25.686;2023-10-31T08:48:18;87.93;;;84.68;;
7593;SDS011;3838;43.124;25.686;2023-10-31T08:50:44;89.63;;;86.30;;
7593;SDS011;3838;43.124;25.686;2023-10-31T08:53:09;90.85;;;87.50;;
7593;SDS011;3838;43.124;25.686;2023-10-31T08:55:35;89.90;;;86.53;;
7593;SDS011;3838;43.124;25.686;2023-10-31T08:58:00;89.20;;;85.85;;
7593;SDS011;3838;43.124;25.686;2023-10-31T09:00:26;88.30;;;85.00;;
7593;SDS011;3838;43.124;25.686;2023-10-31T09:02:53;89.25;;;85.88;;
7593;SDS011;3838;43.124;25.686;2023-10-31T09:05:19;91.93;;;88.47;;
7593;SDS011;3838;43.124;25.686;2023-10-31T09:07:44;90.28;;;86.88;;
7593;SDS011;3838;43.124;25.686;2023-10-31T09:10:11;92.13;;;88.68;;
7593;SDS011;3838;43.124;25.686;2023-10-31T09:12:37;94.15;;;90.65;;
7593;SDS011;3838;43.124;25.686;2023-10-31T09:15:03;89.00;;;85.70;;
7593;SDS011;3838;43.124;25.686;2023-10-31T09:17:29;91.18;;;87.75;;
7593;SDS011;3838;43.124;25.686;2023-10-31T09:19:54;90.93;;;87.55;;
7593;SDS011;3838;43.124;25.686;2023-10-31T09:22:20;95.07;;;91.55;;
7593;SDS011;3838;43.124;25.686;2023-10-31T09:24:46;89.60;;;86.28;;
7593;SDS011;3838;43.124;25.686;2023-10-31T09:27:11;91.78;;;88.28;;
7593;SDS011;3838;43.124;25.686;2023-10-31T09:29:37;92.93;;;89.47;;
7593;SDS011;3838;43.124;25.686;2023-10-31T09:32:03;95.10;;;91.57;;
7593;SDS011;3838;43.124;25.686;2023-10-31T09:34:30;88.00;;;84.70;;
7593;SDS011;3838;43.124;25.686;2023-10-31T09:36:56;95.05;;;91.50;;
7593;SDS011;3838;43.124;25.686;2023-10-31T09:39:21;92.55;;;89.07;;
7593;SDS011;3838;43.124;25.686;2023-10-31T09:41:48;92.10;;;88.70;;
7593;SDS011;3838;43.124;25.686;2023-10-31T09:44:13;95.10;;;91.57;;
7593;SDS011;3838;43.124;25.686;2023-10-31T09:46:39;94.50;;;91.00;;
7593;SDS011;3838;43.124;25.686;2023-10-31T09:49:06;92.32;;;88.90;;
7593;SDS011;3838;43.124;25.686;2023-10-31T09:51:33;90.57;;;87.15;;
7593;SDS011;3838;43.124;25.686;2023-10-31T09:53:58;95.65;;;92.10;;
7593;SDS011;3838;43.124;25.686;2023-10-31T09:56:26;95.53;;;91.97;;
7593;SDS011;3838;43.124;25.686;2023-10-31T09:58:59;94.57;;;91.05;;
7593;SDS011;3838;43.124;25.686;2023-10-31T10:01:25;95.43;;;91.88;;
7593;SDS011;3838;43.124;25.686;2023-10-31T10:03:51;96.85;;;93.20;;
7593;SDS011;3838;43.124;25.686;2023-10-31T10:06:17;94.90;;;91.35;;
7593;SDS011;3838;43.124;25.686;2023-10-31T10:08:46;93.85;;;90.35;;
7593;SDS011;3838;43.124;25.686;2023-10-31T10:11:12;96.88;;;93.22;;
7593;SDS011;3838;43.124;25.686;2023-10-31T10:13:37;95.28;;;91.72;;
7593;SDS011;3838;43.124;25.686;2023-10-31T10:16:03;94.93;;;91.38;;
7593;SDS011;3838;43.124;25.686;2023-10-31T10:18:30;96.13;;;92.53;;
7593;SDS011;3838;43.124;25.686;2023-10-31T10:20:57;95.85;;;92.30;;
7593;SDS011;3838;43.124;25.686;2023-10-31T10:23:24;96.35;;;92.72;;
7593;SDS011;3838;43.124;25.686;2023-10-31T10:25:51;96.93;;;93.30;;
7593;SDS011;3838;43.124;25.686;2023-10-31T10:28:17;94.65;;;91.13;;
7593;SDS011;3838;43.124;25.686;2023-10-31T10:30:47;96.10;;;92.50;;
7593;SDS011;3838;43.124;25.686;2023-10-31T10:33:16;91.60;;;88.15;;
7593;SDS011;3838;43.124;25.686;2023-10-31T10:35:42;95.00;;;91.38;;
7593;SDS011;3838;43.124;25.686;2023-10-31T10:38:12;92.93;;;89.45;;
7593;SDS011;3838;43.124;25.686;2023-10-31T10:40:39;95.00;;;91.45;;
7593;SDS011;3838;43.124;25.686;2023-10-31T10:43:07;94.53;;;90.95;;
7593;SDS011;3838;43.124;25.686;2023-10-31T10:45:46;94.65;;;91.07;;
7593;SDS011;3838;43.124;25.686;2023-10-31T10:48:15;92.60;;;89.05;;
7593;SDS011;3838;43.124;25.686;2023-10-31T10:50:42;93.47;;;89.97;;
7593;SDS011;3838;43.124;25.686;2023-10-31T10:53:16;97.50;;;93.78;;
7593;SDS011;3838;43.124;25.686;2023-10-31T10:55:51;98.55;;;94.80;;
7593;SDS011;3838;43.124;25.686;2023-10-31T11:01:10;95.63;;;92.05;;
7593;SDS011;3838;43.124;25.686;2023-10-31T11:03:36;95.80;;;92.20;;
7593;SDS011;3838;43.124;25.686;2023-10-31T11:06:04;95.60;;;91.97;;
7593;SDS011;3838;43.124;25.686;2023-10-31T11:08:30;95.85;;;92.25;;
7593;SDS011;3838;43.124;25.686;2023-10-31T11:10:57;95.55;;;91.93;;
7593;SDS011;3838;43.124;25.686;2023-10-31T11:13:23;94.57;;;91.00;;
7593;SDS011;3838;43.124;25.686;2023-10-31T11:15:51;97.68;;;94.00;;
7593;SDS011;3838;43.124;25.686;2023-10-31T11:18:21;96.45;;;92.78;;
7593;SDS011;3838;43.124;25.686;2023-10-31T11:20:47;92.45;;;88.93;;
7593;SDS011;3838;43.124;25.686;2023-10-31T11:23:13;98.15;;;94.43;;
7593;SDS011;3838;43.124;25.686;2023-10-31T11:25:42;96.85;;;93.18;;
7593;SDS011;3838;43.124;25.686;2023-10-31T11:28:15;93.35;;;89.80;;
7593;SDS011;3838;43.124;25.686;2023-10-31T11:30:41;95.32;;;91.72;;
7593;SDS011;3838;43.124;25.686;2023-10-31T11:33:13;94.20;;;90.63;;
7593;SDS011;3838;43.124;25.686;2023-10-31T11:35:40;93.32;;;89.78;;
7593;SDS011;3838;43.124;25.686;2023-10-31T11:38:06;95.97;;;92.25;;
7593;SDS011;3838;43.124;25.686;2023-10-31T11:40:34;96.00;;;92.30;;
7593;SDS011;3838;43.124;25.686;2023-10-31T11:43:24;94.20;;;90.60;;
7593;SDS011;3838;43.124;25.686;2023-10-31T11:45:50;91.40;;;87.88;;
7593;SDS011;3838;43.124;25.686;2023-10-31T11:48:16;96.10;;;92.43;;
7593;SDS011;3838;43.124;25.686;2023-10-31T11:50:42;96.55;;;92.85;;
7593;SDS011;3838;43.124;25.686;2023-10-31T11:55:34;93.80;;;90.20;;
7593;SDS011;3838;43.124;25.686;2023-10-31T11:58:43;96.28;;;92.55;;
7593;SDS011;3838;43.124;25.686;2023-10-31T12:01:02;93.97;;;90.30;;
7593;SDS011;3838;43.124;25.686;2023-10-31T12:03:41;94.32;;;90.68;;
7593;SDS011;3838;43.124;25.686;2023-10-31T12:06:08;94.15;;;90.53;;
7593;SDS011;3838;43.124;25.686;2023-10-31T12:08:38;95.07;;;91.40;;
7593;SDS011;3838;43.124;25.686;2023-10-31T12:11:14;91.97;;;88.38;;
7593;SDS011;3838;43.124;25.686;2023-10-31T12:13:52;92.57;;;88.97;;
7593;SDS011;3838;43.124;25.686;2023-10-31T12:16:18;92.40;;;88.82;;
7593;SDS011;3838;43.124;25.686;2023-10-31T12:18:44;99.85;;;95.97;;
7593;SDS011;3838;43.124;25.686;2023-10-31T12:21:09;93.25;;;89.65;;
7593;SDS011;3838;43.124;25.686;2023-10-31T12:23:39;97.15;;;93.40;;
7593;SDS011;3838;43.124;25.686;2023-10-31T12:26:04;96.30;;;92.55;;
7593;SDS011;3838;43.124;25.686;2023-10-31T12:28:30;97.28;;;93.50;;
7593;SDS011;3838;43.124;25.686;2023-10-31T12:30:55;95.28;;;91.50;;
7593;SDS011;3838;43.124;25.686;2023-10-31T12:33:24;97.15;;;93.40;;
7593;SDS011;3838;43.124;25.686;2023-10-31T12:36:00;99.15;;;95.25;;
7593;SDS011;3838;43.124;25.686;2023-10-31T12:38:27;98.50;;;94.68;;
7593;SDS011;3838;43.124;25.686;2023-10-31T12:40:53;100.60;;;96.70;;
7593;SDS011;3838;43.124;25.686;2023-10-31T12:43:21;97.10;;;93.30;;
7593;SDS011;3838;43.124;25.686;2023-10-31T12:45:47;98.20;;;94.35;;
7593;SDS011;3838;43.124;25.686;2023-10-31T12:48:12;96.28;;;92.47;;
7593;SDS011;3838;43.124;25.686;2023-10-31T12:50:38;99.38;;;95.50;;
7593;SDS011;3838;43.124;25.686;2023-10-31T12:53:05;92.82;;;89.18;;
7593;SDS011;3838;43.124;25.686;2023-10-31T12:55:37;97.35;;;93.43;;
7593;SDS011;3838;43.124;25.686;2023-10-31T12:58:07;101.95;;;97.95;;
7593;SDS011;3838;43.124;25.686;2023-10-31T13:00:35;105.53;;;101.38;;
7593;SDS011;3838;43.124;25.686;2023-10-31T13:03:02;101.25;;;97.25;;
7593;SDS011;3838;43.124;25.686;2023-10-31T13:05:33;101.13;;;97.15;;
7593;SDS011;3838;43.124;25.686;2023-10-31T13:07:59;100.78;;;96.78;;
7593;SDS011;3838;43.124;25.686;2023-10-31T13:10:28;100.10;;;96.13;;
7593;SDS011;3838;43.124;25.686;2023-10-31T13:12:54;101.65;;;97.57;;
7593;SDS011;3838;43.124;25.686;2023-10-31T13:15:21;98.88;;;94.97;;
7593;SDS011;3838;43.124;25.686;2023-10-31T13:17:48;99.22;;;95.35;;
7593;SDS011;3838;43.124;25.686;2023-10-31T13:20:14;101.97;;;97.93;;
7593;SDS011;3838;43.124;25.686;2023-10-31T13:22:41;100.80;;;96.80;;
7593;SDS011;3838;43.124;25.686;2023-10-31T13:25:08;104.22;;;100.10;;
7593;SDS011;3838;43.124;25.686;2023-10-31T13:27:39;104.05;;;99.82;;
7593;SDS011;3838;43.124;25.686;2023-10-31T13:30:07;103.38;;;99.28;;
7593;SDS011;3838;43.124;25.686;2023-10-31T13:32:33;106.45;;;102.20;;
7593;SDS011;3838;43.124;25.686;2023-10-31T13:34:59;103.35;;;99.20;;
7593;SDS011;3838;43.124;25.686;2023-10-31T13:37:24;102.13;;;98.10;;
7593;SDS011;3838;43.124;25.686;2023-10-31T13:39:50;104.35;;;100.20;;
7593;SDS011;3838;43.124;25.686;2023-10-31T13:42:16;103.47;;;99.35;;
7593;SDS011;3838;43.124;25.686;2023-10-31T13:44:42;102.97;;;98.82;;
7593;SDS011;3838;43.124;25.686;2023-10-31T13:47:09;100.28;;;96.28;;
7593;SDS011;3838;43.124;25.686;2023-10-31T13:49:35;103.25;;;99.10;;
7593;SDS011;3838;43.124;25.686;2023-10-31T13:52:02;99.82;;;95.85;;
7593;SDS011;3838;43.124;25.686;2023-10-31T13:54:28;102.32;;;98.28;;
7593;SDS011;3838;43.124;25.686;2023-10-31T13:56:54;103.20;;;99.03;;
7593;SDS011;3838;43.124;25.686;2023-10-31T13:59:19;104.40;;;100.25;;
7593;SDS011;3838;43.124;25.686;2023-10-31T14:01:45;102.82;;;98.72;;
7593;SDS011;3838;43.124;25.686;2023-10-31T14:04:11;102.55;;;98.47;;
7593;SDS011;3838;43.124;25.686;2023-10-31T14:06:40;102.45;;;98.40;;
7593;SDS011;3838;43.124;25.686;2023-10-31T14:09:07;102.85;;;98.72;;
7593;SDS011;3838;43.124;25.686;2023-10-31T14:11:33;98.72;;;94.78;;
7593;SDS011;3838;43.124;25.686;2023-10-31T14:13:59;104.68;;;100.50;;
7593;SDS011;3838;43.124;25.686;2023-10-31T14:16:31;103.45;;;99.32;;
7593;SDS011;3838;43.124;25.686;2023-10-31T14:18:59;103.40;;;99.28;;
7593;SDS011;3838;43.124;25.686;2023-10-31T14:21:25;105.95;;;101.70;;
7593;SDS011;3838;43.124;25.686;2023-10-31T14:23:51;105.07;;;100.85;;
7593;SDS011;3838;43.124;25.686;2023-10-31T14:26:19;107.78;;;103.45;;
7593;SDS011;3838;43.124;25.686;2023-10-31T14:28:48;111.03;;;106.53;;
7593;SDS011;3838;43.124;25.686;2023-10-31T14:31:14;111.05;;;106.55;;